Weather at Dongsha Island (Pratas Island) Airport

Public forecast

Using degrees Celsius for public forecast. Weather courtesy of forecast.io.

Closest aviation weather report (METAR) to Dongsha Island (Pratas Island) Airport

Closest report is Hong Kong International Airport, 183.9 nm (340.6 km) WNW. Retrieved 2021/01/25 11:30 UTC (26 minutes ago):

VHHH 251130Z 09004KT CAVOK 20/13 Q1016 NOSIG

Closest aviation forecast (TAF) to Dongsha Island (Pratas Island) Airport

Closest forecast is Hong Kong International Airport, 183.9 nm (340.6 km) WNW. Retrieved 2021/01/25 06:22 UTC (6 hours ago):

TAF VHHH 250500Z 2506/2612 27010KT 9000 FEW030 TX22/2506Z TX23/2606Z TN17/2523Z BECMG 2508/2510 08010KT BECMG 2518/2520 VRB05KT TEMPO 2523/2603 05010KT TEMPO 2603/2609 29010KT 4500 HZ